createdAt,value
2022-10-02T00:01:20.561Z,12.40
2022-10-02T00:04:47.214Z,12.40
2022-10-02T00:08:20.777Z,12.40
2022-10-02T00:12:02.101Z,12.40
2022-10-02T00:15:32.805Z,12.40
2022-10-02T00:19:11.195Z,12.40
2022-10-02T00:22:43.026Z,12.40
2022-10-02T00:26:53.013Z,12.40
2022-10-02T00:30:27.277Z,12.40
2022-10-02T00:34:04.030Z,12.40
2022-10-02T00:38:04.295Z,12.40
2022-10-02T00:41:52.145Z,12.40
2022-10-02T00:46:02.489Z,12.50
2022-10-02T00:49:53.885Z,12.50
2022-10-02T00:53:57.467Z,12.50
2022-10-02T00:58:02.885Z,12.60
2022-10-02T01:01:41.657Z,12.50
2022-10-02T01:05:12.029Z,12.50
2022-10-02T01:08:41.046Z,12.60
2022-10-02T01:12:07.232Z,12.60
2022-10-02T01:15:38.344Z,12.60
2022-10-02T01:19:05.461Z,12.60
2022-10-02T01:22:51.745Z,12.60
2022-10-02T01:26:17.453Z,12.70
2022-10-02T01:29:43.555Z,12.60
2022-10-02T01:33:09.144Z,12.60
2022-10-02T01:36:37.080Z,12.60
2022-10-02T01:40:05.366Z,12.50
2022-10-02T01:43:35.631Z,12.50
2022-10-02T01:47:56.422Z,12.50
2022-10-02T01:51:59.209Z,12.50
2022-10-02T01:56:03.584Z,12.50
2022-10-02T02:00:17.501Z,12.50
2022-10-02T02:04:12.853Z,12.40
2022-10-02T02:08:25.951Z,12.40
2022-10-02T02:12:10.392Z,12.40
2022-10-02T02:15:43.927Z,12.40
2022-10-02T02:19:42.327Z,12.50
2022-10-02T02:23:24.858Z,12.40
2022-10-02T02:26:55.841Z,12.40
2022-10-02T02:30:23.480Z,12.40
2022-10-02T02:34:10.289Z,12.40
2022-10-02T02:37:40.098Z,12.40
2022-10-02T02:41:15.399Z,12.40
2022-10-02T02:45:05.192Z,12.30
2022-10-02T02:48:44.609Z,12.30
2022-10-02T02:52:45.985Z,12.30
2022-10-02T02:56:18.902Z,12.40
2022-10-02T03:00:09.805Z,12.40
2022-10-02T03:03:35.187Z,12.40
2022-10-02T03:07:29.342Z,12.40
2022-10-02T03:11:13.231Z,12.40
2022-10-02T03:15:22.511Z,12.40
2022-10-02T03:18:59.669Z,12.40
2022-10-02T03:22:41.258Z,12.40
2022-10-02T03:26:29.866Z,12.40
2022-10-02T03:30:00.806Z,12.40
2022-10-02T03:33:27.499Z,12.40
2022-10-02T03:36:54.280Z,12.40
2022-10-02T03:40:26.397Z,12.40
2022-10-02T03:43:52.967Z,12.40
2022-10-02T03:47:18.422Z,12.40
2022-10-02T03:50:44.618Z,12.40
2022-10-02T03:54:18.036Z,12.40
2022-10-02T03:57:55.410Z,12.30
2022-10-02T04:01:33.893Z,12.40
2022-10-02T04:05:19.442Z,12.30
2022-10-02T04:08:57.299Z,12.30
2022-10-02T04:12:45.673Z,12.30
2022-10-02T04:16:29.197Z,12.30
2022-10-02T04:20:09.779Z,12.20
2022-10-02T04:23:48.288Z,12.30
2022-10-02T04:27:33.931Z,12.20
2022-10-02T04:31:08.294Z,12.20
2022-10-02T04:34:33.902Z,12.20
2022-10-02T04:38:36.871Z,12.20
2022-10-02T04:42:53.202Z,12.20
2022-10-02T04:46:57.985Z,12.20
2022-10-02T04:51:04.073Z,12.20
2022-10-02T04:55:06.766Z,12.20
2022-10-02T04:59:02.898Z,12.20
2022-10-02T05:02:48.576Z,12.10
2022-10-02T05:06:49.222Z,12.20
2022-10-02T05:10:48.710Z,12.10
2022-10-02T05:14:54.592Z,12.10
2022-10-02T05:19:00.601Z,12.10
2022-10-02T05:23:00.151Z,12.00
2022-10-02T05:27:16.136Z,12.00
2022-10-02T05:31:04.181Z,12.00
2022-10-02T05:34:58.375Z,12.00
2022-10-02T05:39:07.251Z,12.00
2022-10-02T05:43:06.957Z,12.00
2022-10-02T05:47:05.741Z,11.90
2022-10-02T05:50:43.775Z,11.90
2022-10-02T05:54:20.802Z,11.90
2022-10-02T05:57:57.822Z,11.90
2022-10-02T06:01:44.500Z,11.90
2022-10-02T06:05:25.473Z,11.90
2022-10-02T06:09:10.556Z,11.80
2022-10-02T06:13:13.776Z,11.80
2022-10-02T06:16:53.098Z,11.80
2022-10-02T06:20:52.293Z,11.80
2022-10-02T06:24:50.831Z,11.80
2022-10-02T06:29:00.532Z,11.80
2022-10-02T06:33:06.955Z,11.80
2022-10-02T06:37:18.198Z,11.90
2022-10-02T06:41:31.914Z,11.90
2022-10-02T06:45:06.383Z,11.90
2022-10-02T06:49:00.638Z,11.90
2022-10-02T06:52:47.897Z,11.90
2022-10-02T06:56:37.790Z,11.90
2022-10-02T07:00:14.322Z,12.00
2022-10-02T07:04:06.318Z,12.00
2022-10-02T07:07:43.684Z,12.00
2022-10-02T07:11:28.832Z,12.10
2022-10-02T07:14:59.749Z,12.10
2022-10-02T07:19:12.356Z,12.10
2022-10-02T07:23:16.310Z,12.10
2022-10-02T07:26:12.940Z,12.20
2022-10-02T07:29:46.191Z,12.30
2022-10-02T07:34:14.906Z,12.30
2022-10-02T07:38:12.535Z,12.30
2022-10-02T07:41:59.210Z,12.40
2022-10-02T07:46:17.049Z,12.40
2022-10-02T07:50:16.693Z,12.40
2022-10-02T07:53:54.484Z,12.40
2022-10-02T07:57:27.607Z,12.40
2022-10-02T08:01:32.605Z,12.40
2022-10-02T08:05:03.214Z,12.40
2022-10-02T08:08:31.671Z,12.50
2022-10-02T08:12:10.975Z,12.60
2022-10-02T08:15:41.997Z,12.50
2022-10-02T08:19:25.993Z,12.50
2022-10-02T08:23:15.046Z,12.50
2022-10-02T08:26:56.042Z,12.50
2022-10-02T08:30:31.070Z,12.40
2022-10-02T08:33:57.587Z,12.50
2022-10-02T08:37:44.795Z,12.60
2022-10-02T08:42:05.299Z,12.70
2022-10-02T08:46:08.352Z,12.70
2022-10-02T08:49:57.660Z,12.80
2022-10-02T08:54:02.566Z,12.80
2022-10-02T08:57:47.140Z,12.80
2022-10-02T09:02:00.134Z,12.70
2022-10-02T09:06:02.595Z,12.60
2022-10-02T09:10:14.519Z,12.70
2022-10-02T09:14:02.748Z,12.80
2022-10-02T09:18:01.422Z,12.80
2022-10-02T09:21:57.123Z,12.70
2022-10-02T09:25:40.574Z,12.80
2022-10-02T09:29:40.738Z,12.90
2022-10-02T09:33:39.413Z,12.90
2022-10-02T09:37:44.070Z,12.90
2022-10-02T09:41:57.167Z,12.90
2022-10-02T09:45:51.298Z,12.80
2022-10-02T09:49:57.433Z,12.90
2022-10-02T09:54:14.744Z,12.90
2022-10-02T09:58:27.377Z,12.90
2022-10-02T10:02:33.541Z,13.00
2022-10-02T10:06:44.777Z,13.10
2022-10-02T10:09:51.680Z,13.10
2022-10-02T10:13:07.525Z,13.20
2022-10-02T10:15:52.584Z,13.20
2022-10-02T10:18:42.457Z,13.30
2022-10-02T10:22:03.533Z,13.30
2022-10-02T10:25:19.245Z,13.30
2022-10-02T10:28:19.833Z,13.30
2022-10-02T10:31:10.202Z,13.20
2022-10-02T10:33:52.059Z,13.20
2022-10-02T10:37:03.023Z,13.20
2022-10-02T10:40:15.986Z,13.20
2022-10-02T10:43:06.972Z,13.30
2022-10-02T10:46:37.557Z,13.60
2022-10-02T10:49:22.840Z,13.70
2022-10-02T10:52:19.611Z,13.70
2022-10-02T10:55:07.712Z,13.70
2022-10-02T10:58:09.962Z,13.60
2022-10-02T11:00:58.649Z,13.60
2022-10-02T11:03:59.827Z,13.60
2022-10-02T11:07:02.049Z,13.70
2022-10-02T11:09:47.913Z,13.80
2022-10-02T11:12:50.979Z,13.90
2022-10-02T11:15:44.078Z,13.70
2022-10-02T11:18:31.022Z,13.80
2022-10-02T11:21:39.978Z,13.70
2022-10-02T11:24:33.949Z,13.70
2022-10-02T11:27:17.358Z,13.70
2022-10-02T11:30:14.599Z,13.70
2022-10-02T11:33:04.299Z,13.60
2022-10-02T11:35:51.902Z,13.70
2022-10-02T11:39:08.176Z,13.60
2022-10-02T11:42:29.030Z,13.60
2022-10-02T11:45:04.753Z,13.60
2022-10-02T11:47:49.788Z,13.70
2022-10-02T11:50:40.831Z,13.80
2022-10-02T11:53:54.789Z,13.90
2022-10-02T11:56:43.709Z,13.80
2022-10-02T11:59:48.500Z,13.90
2022-10-02T12:03:01.553Z,13.80
2022-10-02T12:06:04.852Z,13.90
2022-10-02T12:09:32.801Z,13.80
2022-10-02T12:12:36.868Z,13.80
2022-10-02T12:15:23.892Z,13.80
2022-10-02T12:18:28.702Z,13.70
2022-10-02T12:21:30.730Z,13.70
2022-10-02T12:24:29.362Z,13.60
2022-10-02T12:27:11.485Z,13.60
2022-10-02T12:30:01.340Z,13.50
2022-10-02T12:32:59.261Z,13.50
2022-10-02T12:35:47.057Z,13.50
2022-10-02T12:38:39.747Z,13.50
2022-10-02T12:41:52.902Z,13.50
2022-10-02T12:44:43.810Z,13.70
2022-10-02T12:47:29.197Z,13.80
2022-10-02T12:50:21.934Z,13.80
2022-10-02T12:53:21.899Z,13.90
2022-10-02T12:56:23.089Z,14.00
2022-10-02T12:59:08.721Z,14.10
2022-10-02T13:02:16.025Z,14.00
2022-10-02T13:05:55.543Z,13.90
2022-10-02T13:08:31.471Z,13.70
2022-10-02T13:11:19.329Z,13.60
2022-10-02T13:14:17.935Z,13.60
2022-10-02T13:17:15.804Z,13.60
2022-10-02T13:20:05.483Z,13.70
2022-10-02T13:22:43.721Z,13.80
2022-10-02T13:25:36.803Z,13.80
2022-10-02T13:28:13.584Z,13.80
2022-10-02T13:31:25.283Z,13.90
2022-10-02T13:34:34.030Z,14.00
2022-10-02T13:37:31.347Z,14.00
2022-10-02T13:40:26.456Z,14.00
2022-10-02T13:43:18.280Z,14.00
2022-10-02T13:45:57.187Z,14.00
2022-10-02T13:48:59.296Z,14.00
2022-10-02T13:51:53.730Z,14.00
2022-10-02T13:54:41.400Z,14.10
2022-10-02T13:57:53.639Z,14.20
2022-10-02T14:00:58.444Z,14.00
2022-10-02T14:03:54.623Z,13.80
2022-10-02T14:06:39.093Z,13.70
2022-10-02T14:09:21.214Z,13.90
2022-10-02T14:12:03.965Z,14.00
2022-10-02T14:15:13.938Z,14.10
2022-10-02T14:18:35.344Z,14.20
2022-10-02T14:21:22.370Z,14.00
2022-10-02T14:23:57.889Z,13.80
2022-10-02T14:27:15.392Z,13.70
2022-10-02T14:30:23.482Z,13.60
2022-10-02T14:32:59.074Z,13.50
2022-10-02T14:35:59.195Z,13.40
2022-10-02T14:38:29.144Z,13.40
2022-10-02T14:40:59.260Z,13.40
2022-10-02T14:44:03.407Z,13.40
2022-10-02T14:46:52.949Z,13.40
2022-10-02T14:49:47.621Z,13.40
2022-10-02T14:53:26.773Z,13.30
2022-10-02T14:56:15.591Z,13.20
2022-10-02T14:59:21.724Z,13.20
2022-10-02T15:02:09.612Z,13.20
2022-10-02T15:04:55.330Z,13.30
2022-10-02T15:07:26.019Z,13.20
2022-10-02T15:10:14.722Z,13.10
2022-10-02T15:13:01.847Z,13.10
2022-10-02T15:16:30.003Z,13.00
2022-10-02T15:19:22.953Z,12.90
2022-10-02T15:22:24.987Z,13.00
2022-10-02T15:25:17.017Z,13.10
2022-10-02T15:28:36.882Z,13.00
2022-10-02T15:31:48.588Z,13.00
2022-10-02T15:34:40.670Z,13.00
2022-10-02T15:37:27.047Z,13.00
2022-10-02T15:40:29.703Z,13.00
2022-10-02T15:43:04.026Z,13.00
2022-10-02T15:45:36.514Z,12.90
2022-10-02T15:48:03.973Z,12.90
2022-10-02T15:50:46.140Z,12.90
2022-10-02T15:53:46.405Z,13.00
2022-10-02T15:56:44.208Z,13.00
2022-10-02T16:00:07.063Z,13.00
2022-10-02T16:03:12.597Z,13.00
2022-10-02T16:05:53.341Z,12.90
2022-10-02T16:08:46.609Z,12.90
2022-10-02T16:11:32.334Z,12.80
2022-10-02T16:14:19.003Z,12.80
2022-10-02T16:17:07.079Z,12.80
2022-10-02T16:19:58.822Z,12.80
2022-10-02T16:23:09.946Z,12.70
2022-10-02T16:26:15.448Z,12.70
2022-10-02T16:29:05.274Z,12.70
2022-10-02T16:32:02.550Z,12.70
2022-10-02T16:35:05.805Z,12.80
2022-10-02T16:38:04.751Z,12.70
2022-10-02T16:40:44.574Z,12.70
2022-10-02T16:43:29.669Z,12.70
2022-10-02T16:46:14.294Z,12.80
2022-10-02T16:49:01.571Z,12.80
2022-10-02T16:52:24.196Z,12.80
2022-10-02T16:55:33.418Z,12.80
2022-10-02T16:58:12.483Z,12.70
2022-10-02T17:00:59.161Z,12.70
2022-10-02T17:03:36.457Z,12.80
2022-10-02T17:06:26.393Z,12.80
2022-10-02T17:09:08.112Z,12.80
2022-10-02T17:12:02.187Z,12.80
2022-10-02T17:14:50.517Z,12.80
2022-10-02T17:17:35.649Z,12.70
2022-10-02T17:20:03.248Z,12.70
2022-10-02T17:22:46.745Z,12.70
2022-10-02T17:25:51.326Z,12.70
2022-10-02T17:28:53.189Z,12.70
2022-10-02T17:31:38.194Z,12.70
2022-10-02T17:34:24.332Z,12.70
2022-10-02T17:37:14.435Z,12.60
2022-10-02T17:40:00.588Z,12.60
2022-10-02T17:42:58.131Z,12.50
2022-10-02T17:45:48.273Z,12.40
2022-10-02T17:48:20.821Z,12.40
2022-10-02T17:51:48.172Z,12.40
2022-10-02T17:54:52.354Z,12.40
2022-10-02T17:57:32.017Z,12.30
2022-10-02T18:00:19.585Z,12.20
2022-10-02T18:03:28.604Z,12.10
2022-10-02T18:06:30.971Z,12.00
2022-10-02T18:09:32.713Z,11.70
2022-10-02T18:12:11.091Z,11.70
2022-10-02T18:14:59.348Z,11.60
2022-10-02T18:18:00.434Z,11.60
2022-10-02T18:20:35.276Z,11.50
2022-10-02T18:23:15.427Z,11.40
2022-10-02T18:25:57.686Z,11.40
2022-10-02T18:29:08.095Z,11.30
2022-10-02T18:32:06.490Z,11.30
2022-10-02T18:35:03.853Z,11.20
2022-10-02T18:38:11.639Z,11.00
2022-10-02T18:41:09.334Z,11.00
2022-10-02T18:43:51.380Z,10.90
2022-10-02T18:46:59.248Z,10.70
2022-10-02T18:50:00.793Z,10.60
2022-10-02T18:52:42.646Z,10.70
2022-10-02T18:55:29.484Z,10.90
2022-10-02T18:58:07.538Z,11.20
2022-10-02T19:01:06.680Z,11.30
2022-10-02T19:04:02.072Z,11.30
2022-10-02T19:06:55.875Z,11.30
2022-10-02T19:09:30.551Z,11.30
2022-10-02T19:12:05.088Z,11.30
2022-10-02T19:14:41.228Z,11.40
2022-10-02T19:17:27.705Z,11.50
2022-10-02T19:19:56.143Z,11.70
2022-10-02T19:22:32.036Z,11.80
2022-10-02T19:25:05.002Z,11.80
2022-10-02T19:27:35.910Z,11.90
2022-10-02T19:30:21.804Z,11.90
2022-10-02T19:32:51.149Z,11.90
2022-10-02T19:35:34.793Z,11.90
2022-10-02T19:38:33.787Z,11.90
2022-10-02T19:41:09.664Z,11.80
2022-10-02T19:43:58.448Z,11.80
2022-10-02T19:46:38.100Z,11.70
2022-10-02T19:49:06.403Z,11.80
2022-10-02T19:51:46.218Z,11.80
2022-10-02T19:54:31.387Z,11.80
2022-10-02T19:57:07.627Z,11.80
2022-10-02T19:59:49.347Z,11.70
2022-10-02T20:02:36.766Z,11.70
2022-10-02T20:05:08.153Z,11.60
2022-10-02T20:07:38.678Z,11.50
2022-10-02T20:10:17.152Z,11.50
2022-10-02T20:12:53.346Z,11.40
2022-10-02T20:15:52.331Z,11.30
2022-10-02T20:18:23.308Z,11.40
2022-10-02T20:20:55.878Z,11.40
2022-10-02T20:23:28.340Z,11.40
2022-10-02T20:25:58.839Z,11.40
2022-10-02T20:28:57.952Z,11.30
2022-10-02T20:31:55.093Z,11.30
2022-10-02T20:34:35.558Z,11.30
2022-10-02T20:37:13.382Z,11.30
2022-10-02T20:40:22.356Z,11.20
2022-10-02T20:43:03.557Z,11.20
2022-10-02T20:45:50.955Z,11.10
2022-10-02T20:49:08.806Z,11.10
2022-10-02T20:51:53.983Z,11.00
2022-10-02T20:54:42.678Z,11.00
2022-10-02T20:58:00.245Z,10.90
2022-10-02T21:00:53.020Z,10.90
2022-10-02T21:03:42.381Z,10.70
2022-10-02T21:06:52.708Z,10.60
2022-10-02T21:09:50.445Z,10.50
2022-10-02T21:13:24.399Z,10.40
2022-10-02T21:16:05.523Z,10.30
2022-10-02T21:19:13.548Z,10.10
2022-10-02T21:22:39.930Z,10.00
2022-10-02T21:25:28.249Z,9.90
2022-10-02T21:28:41.161Z,9.90
2022-10-02T21:31:42.504Z,9.80
2022-10-02T21:34:35.345Z,9.80
2022-10-02T21:37:46.792Z,9.70
2022-10-02T21:40:47.557Z,9.70
2022-10-02T21:43:43.529Z,9.60
2022-10-02T21:46:10.820Z,9.50
2022-10-02T21:49:32.692Z,9.40
2022-10-02T21:52:02.291Z,9.40
2022-10-02T21:55:08.226Z,9.40
2022-10-02T21:58:30.032Z,9.30
2022-10-02T22:01:15.273Z,9.30
2022-10-02T22:04:08.184Z,9.20
2022-10-02T22:07:09.183Z,9.20
2022-10-02T22:09:47.431Z,9.20
2022-10-02T22:12:29.116Z,9.20
2022-10-02T22:15:11.813Z,9.20
2022-10-02T22:17:47.526Z,9.20
2022-10-02T22:20:20.466Z,9.20
2022-10-02T22:22:59.370Z,9.10
2022-10-02T22:25:35.860Z,9.10
2022-10-02T22:28:28.267Z,9.00
2022-10-02T22:30:55.188Z,9.00
2022-10-02T22:33:55.604Z,9.00
2022-10-02T22:36:44.335Z,9.00
2022-10-02T22:39:34.710Z,9.00
2022-10-02T22:42:19.430Z,9.10
2022-10-02T22:45:00.341Z,9.10
2022-10-02T22:47:38.735Z,9.10
2022-10-02T22:50:29.648Z,9.10
2022-10-02T22:53:21.034Z,9.10
2022-10-02T22:55:54.126Z,9.10
2022-10-02T22:58:44.448Z,9.10
2022-10-02T23:01:49.076Z,9.00
2022-10-02T23:04:25.304Z,9.00
2022-10-02T23:07:04.834Z,9.00
2022-10-02T23:09:49.121Z,9.00
2022-10-02T23:12:27.981Z,9.10
2022-10-02T23:15:24.152Z,9.10
2022-10-02T23:17:58.334Z,9.00
2022-10-02T23:21:02.559Z,9.00
2022-10-02T23:23:58.237Z,8.90
2022-10-02T23:27:02.814Z,8.90
2022-10-02T23:29:45.983Z,8.90
2022-10-02T23:32:31.612Z,8.90
2022-10-02T23:35:20.266Z,8.80
2022-10-02T23:38:06.406Z,8.80
2022-10-02T23:41:08.648Z,8.80
2022-10-02T23:43:48.842Z,8.80
2022-10-02T23:46:28.285Z,8.70
2022-10-02T23:48:56.063Z,8.70
2022-10-02T23:51:28.282Z,8.60
2022-10-02T23:54:17.201Z,8.60
2022-10-02T23:57:39.189Z,8.60
